Time;durP1;ratioP1;P1;durP2;ratioP2;P2;SDS_P1;SDS_P2;PMS_P1;PMS_P2;Temp;Humidity;BMP_temperature;BMP_pressure;BME280_temperature;BME280_humidity;BME280_pressure;Samples;Min_cycle;Max_cycle;Signal;HPM_P1;HPM_P2
2021/12/12 00:00:46;;;;;;;8.23;6.13;;;5.90;99.90;;;;;;5067111;28;20266;-88
2021/12/12 00:03:20;;;;;;;8.50;6.00;;;6.40;99.90;;;;;;5079429;28;20185;-88
2021/12/12 00:05:51;;;;;;;8.68;6.30;;;6.20;99.90;;;;;;5069599;28;20209;-88
2021/12/12 00:08:20;;;;;;;9.55;5.45;;;6.20;99.90;;;;;;5078859;28;20197;-88
2021/12/12 00:10:51;;;;;;;11.07;6.85;;;6.00;99.90;;;;;;5068591;28;20240;-87
2021/12/12 00:13:37;;;;;;;8.45;6.00;;;5.70;99.90;;;;;;5065358;28;20643;-88
2021/12/12 00:16:04;;;;;;;11.70;6.07;;;5.90;99.90;;;;;;5063054;28;20293;-87
2021/12/12 00:18:32;;;;;;;8.50;5.65;;;5.90;99.90;;;;;;5062299;28;20259;-87
2021/12/12 00:21:00;;;;;;;7.32;5.60;;;5.80;99.90;;;;;;5061829;28;20289;-88
2021/12/12 00:23:27;;;;;;;9.13;5.82;;;6.10;99.90;;;;;;5065930;28;20206;-89
2021/12/12 00:25:58;;;;;;;9.48;5.53;;;6.40;99.90;;;;;;5066085;28;20226;-89
2021/12/12 00:28:25;;;;;;;6.80;5.40;;;6.20;99.90;;;;;;5063040;28;20191;-87
2021/12/12 00:30:56;;;;;;;8.30;5.20;;;6.10;99.90;;;;;;5062937;28;20213;-89
2021/12/12 00:33:23;;;;;;;8.68;6.10;;;6.30;99.90;;;;;;5061214;28;20575;-88
2021/12/12 00:35:51;;;;;;;9.07;5.60;;;6.20;99.90;;;;;;5062788;28;20240;-87
2021/12/12 00:38:24;;;;;;;9.23;6.60;;;6.20;99.90;;;;;;5064623;28;20206;-89
2021/12/12 00:40:54;;;;;;;14.18;7.60;;;6.00;99.90;;;;;;5063713;28;20285;-89
2021/12/12 00:43:25;;;;;;;8.88;5.85;;;5.90;99.90;;;;;;5061844;28;20674;-88
2021/12/12 00:45:54;;;;;;;10.40;6.35;;;6.50;99.90;;;;;;5062031;28;20241;-88
2021/12/12 00:48:23;;;;;;;8.52;5.88;;;6.50;99.90;;;;;;5060624;28;20206;-88
2021/12/12 00:50:51;;;;;;;9.52;5.90;;;6.60;99.90;;;;;;5060563;28;20259;-89
2021/12/12 00:53:22;;;;;;;8.75;6.40;;;6.50;99.90;;;;;;5066039;28;20230;-88
2021/12/12 00:55:52;;;;;;;9.95;6.60;;;6.70;99.90;;;;;;5063051;28;20222;-87
2021/12/12 00:58:20;;;;;;;10.90;7.03;;;6.60;99.90;;;;;;5061145;28;20293;-88
2021/12/12 01:00:50;;;;;;;8.93;5.80;;;6.10;99.90;;;;;;5060409;28;20216;-88
2021/12/12 01:03:21;;;;;;;10.40;7.50;;;5.70;99.90;;;;;;5059751;28;20194;-88
2021/12/12 01:05:50;;;;;;;8.98;6.70;;;6.30;99.90;;;;;;5060209;28;20655;-88
2021/12/12 01:08:17;;;;;;;8.50;6.40;;;6.20;99.90;;;;;;5060602;28;20238;-89
2021/12/12 01:10:48;;;;;;;11.05;6.47;;;5.80;99.90;;;;;;5067694;28;20263;-89
2021/12/12 01:13:15;;;;;;;9.68;6.43;;;6.30;99.90;;;;;;5072979;28;20631;-87
2021/12/12 01:15:48;;;;;;;9.68;6.22;;;6.20;99.90;;;;;;5059310;28;20321;-88
2021/12/12 01:18:19;;;;;;;9.02;5.95;;;6.30;99.90;;;;;;5059085;28;20643;-87
2021/12/12 01:20:51;;;;;;;11.30;7.53;;;5.90;99.90;;;;;;5063096;28;20724;-87
2021/12/12 01:23:21;;;;;;;12.05;6.78;;;6.10;99.90;;;;;;5070087;28;20198;-89
2021/12/12 01:25:54;;;;;;;10.35;6.68;;;6.20;99.90;;;;;;5064863;28;20250;-87
2021/12/12 01:28:24;;;;;;;13.25;6.63;;;5.80;99.90;;;;;;5064927;28;20198;-89
2021/12/12 01:30:53;;;;;;;8.65;5.80;;;5.50;99.90;;;;;;5064678;28;20301;-88
2021/12/12 01:33:32;;;;;;;7.70;5.95;;;6.10;99.90;;;;;;5067317;28;20690;-87
2021/12/12 01:36:00;;;;;;;7.90;5.85;;;5.80;99.90;;;;;;5072526;28;20226;-88
2021/12/12 01:41:14;;;;;;;8.52;5.60;;;6.10;99.90;;;;;;5072670;28;20188;-87
2021/12/12 01:43:45;;;;;;;7.97;5.93;;;6.10;99.90;;;;;;5066905;28;20226;-88
2021/12/12 01:46:20;;;;;;;8.65;6.00;;;6.20;99.90;;;;;;5073380;28;20681;-88
2021/12/12 01:48:51;;;;;;;9.57;6.45;;;5.50;99.90;;;;;;5072507;28;20194;-87
2021/12/12 01:51:18;;;;;;;10.27;5.95;;;5.70;99.90;;;;;;5072768;28;20249;-87
2021/12/12 01:53:49;;;;;;;9.77;6.45;;;6.00;99.90;;;;;;5071166;28;20271;-89
2021/12/12 01:56:23;;;;;;;8.82;5.80;;;5.60;99.90;;;;;;5065770;28;20225;-89
2021/12/12 01:58:54;;;;;;;8.40;6.00;;;5.80;99.90;;;;;;5066548;28;20219;-89
2021/12/12 02:01:24;;;;;;;9.68;6.00;;;5.90;99.90;;;;;;5068262;28;20193;-89
2021/12/12 02:03:56;;;;;;;9.77;4.95;;;6.00;99.90;;;;;;5070819;28;20194;-89
2021/12/12 02:06:24;;;;;;;8.38;6.15;;;6.00;99.90;;;;;;5071311;28;20340;-88
2021/12/12 02:08:53;;;;;;;10.40;6.18;;;5.80;99.90;;;;;;5071471;28;20247;-88
2021/12/12 02:11:26;;;;;;;9.48;5.20;;;6.20;99.90;;;;;;5070931;28;20206;-87
2021/12/12 02:13:56;;;;;;;8.75;5.05;;;6.10;99.90;;;;;;5073374;28;20254;-89
2021/12/12 02:16:25;;;;;;;8.50;5.80;;;5.50;99.90;;;;;;5071575;28;20674;-90
2021/12/12 02:18:56;;;;;;;8.60;5.85;;;5.60;99.90;;;;;;5070622;28;20206;-88
2021/12/12 02:21:27;;;;;;;10.93;6.57;;;6.00;99.90;;;;;;5069768;28;20650;-89
2021/12/12 02:35:14;;;;;;;7.20;4.82;;;6.00;99.90;;;;;;5075052;28;20244;-88
2021/12/12 02:37:42;;;;;;;8.90;5.35;;;6.20;99.90;;;;;;5065186;28;20623;-88
2021/12/12 02:40:15;;;;;;;6.78;4.63;;;6.10;99.90;;;;;;5068053;28;20266;-88
2021/12/12 02:42:42;;;;;;;9.90;5.20;;;6.00;99.90;;;;;;5081223;28;20202;-87
2021/12/12 02:45:11;;;;;;;8.88;5.78;;;6.00;99.90;;;;;;5080702;28;20249;-87
2021/12/12 02:47:39;;;;;;;8.60;5.57;;;5.80;99.90;;;;;;5076286;28;20203;-85
2021/12/12 02:50:13;;;;;;;6.82;4.85;;;5.80;99.90;;;;;;5077558;28;20198;-87
2021/12/12 02:52:43;;;;;;;9.15;4.93;;;6.10;99.90;;;;;;5079291;28;20190;-87
2021/12/12 02:55:14;;;;;;;14.18;5.38;;;6.20;99.90;;;;;;5076524;28;20274;-90
2021/12/12 02:57:41;;;;;;;7.90;4.95;;;6.20;99.90;;;;;;5069997;28;20226;-88
2021/12/12 03:00:11;;;;;;;8.25;5.10;;;6.10;99.90;;;;;;5068413;28;20230;-89
2021/12/12 03:02:45;;;;;;;9.07;4.47;;;6.10;99.90;;;;;;5064633;28;20257;-88
2021/12/12 03:05:13;;;;;;;6.75;3.90;;;6.10;99.90;;;;;;5063435;28;20234;-88
2021/12/12 03:07:41;;;;;;;7.20;3.97;;;6.00;99.90;;;;;;5064906;28;20237;-88
2021/12/12 03:10:13;;;;;;;8.10;4.50;;;6.10;99.90;;;;;;5065214;28;20237;-89
2021/12/12 03:12:41;;;;;;;9.00;5.03;;;6.10;99.90;;;;;;5064322;28;20648;-89
2021/12/12 03:15:12;;;;;;;6.68;4.40;;;6.20;99.90;;;;;;5070138;28;20226;-88
2021/12/12 03:17:41;;;;;;;9.73;4.75;;;5.90;99.90;;;;;;5062882;28;20186;-88
2021/12/12 03:20:12;;;;;;;8.63;4.80;;;5.80;99.90;;;;;;5060085;28;20229;-87
2021/12/12 03:22:39;;;;;;;7.43;4.43;;;6.00;99.90;;;;;;5060524;28;20218;-87
2021/12/12 03:25:08;;;;;;;6.53;4.15;;;6.10;99.90;;;;;;5060866;28;20221;-88
2021/12/12 03:27:37;;;;;;;6.75;4.35;;;6.10;99.90;;;;;;5060604;28;20240;-88
2021/12/12 03:30:06;;;;;;;8.20;4.45;;;5.70;99.90;;;;;;5068138;28;20409;-89
2021/12/12 03:32:34;;;;;;;7.05;4.57;;;6.20;99.90;;;;;;5072442;28;20237;-87
2021/12/12 03:35:03;;;;;;;7.85;4.70;;;6.10;99.90;;;;;;5070439;28;20258;-89
2021/12/12 03:37:32;;;;;;;6.47;4.32;;;5.60;99.90;;;;;;5071048;28;20214;-89
2021/12/12 03:40:02;;;;;;;7.72;4.45;;;5.30;99.90;;;;;;5072557;28;20595;-89
2021/12/12 03:42:30;;;;;;;6.47;4.28;;;5.70;99.90;;;;;;5072684;28;20269;-90
2021/12/12 03:45:01;;;;;;;7.75;4.30;;;5.60;99.90;;;;;;5069795;28;20225;-87
2021/12/12 03:47:32;;;;;;;8.40;4.72;;;5.60;99.90;;;;;;5073006;28;20265;-89
2021/12/12 03:50:02;;;;;;;6.47;4.78;;;6.10;99.90;;;;;;5065734;28;20250;-88
2021/12/12 03:52:29;;;;;;;6.95;4.18;;;5.40;99.90;;;;;;5063981;28;20213;-89
2021/12/12 03:55:00;;;;;;;7.85;5.30;;;5.70;99.90;;;;;;5068982;28;20248;-88
2021/12/12 03:57:28;;;;;;;6.72;4.10;;;5.50;99.90;;;;;;5077180;28;20187;-86
2021/12/12 03:59:55;;;;;;;8.80;3.83;;;5.10;99.90;;;;;;5070100;28;20234;-86
2021/12/12 04:02:24;;;;;;;7.82;4.00;;;5.20;99.90;;;;;;5063497;28;20233;-88
2021/12/12 04:04:51;;;;;;;8.68;4.40;;;5.30;99.90;;;;;;5062957;28;20257;-90
2021/12/12 04:07:22;;;;;;;7.65;4.45;;;5.50;99.90;;;;;;5064326;28;20222;-88
2021/12/12 04:09:49;;;;;;;10.30;3.90;;;5.60;99.90;;;;;;5060491;28;20237;-87
2021/12/12 04:12:18;;;;;;;8.32;3.85;;;5.60;99.90;;;;;;5059431;28;20364;-87
2021/12/12 04:14:46;;;;;;;9.80;4.43;;;5.70;99.90;;;;;;5061455;28;20280;-89
2021/12/12 04:17:18;;;;;;;7.18;4.20;;;5.20;99.90;;;;;;5061789;28;20265;-89
2021/12/12 04:19:50;;;;;;;9.15;4.60;;;4.80;99.90;;;;;;5061276;28;20674;-89
2021/12/12 04:22:17;;;;;;;7.80;4.13;;;4.70;99.90;;;;;;5069211;28;20216;-89
2021/12/12 04:24:46;;;;;;;8.27;4.20;;;5.00;99.90;;;;;;5065635;28;20268;-88
2021/12/12 04:27:13;;;;;;;9.38;4.70;;;4.60;99.90;;;;;;5059655;28;20693;-88
2021/12/12 04:29:43;;;;;;;7.30;4.75;;;4.60;99.90;;;;;;5060892;28;20301;-88
2021/12/12 04:32:12;;;;;;;6.95;4.40;;;4.70;99.90;;;;;;5060182;28;20288;-88
2021/12/12 04:34:43;;;;;;;9.25;4.82;;;4.70;99.90;;;;;;5060819;28;20256;-89
2021/12/12 04:37:13;;;;;;;10.20;4.47;;;4.30;99.90;;;;;;5061233;28;20240;-87
2021/12/12 04:39:42;;;;;;;8.38;4.63;;;4.70;99.90;;;;;;5060562;28;20244;-88
2021/12/12 04:42:13;;;;;;;8.93;4.43;;;4.20;99.90;;;;;;5065327;28;20240;-87
2021/12/12 04:44:42;;;;;;;10.75;4.15;;;4.80;99.90;;;;;;5072656;28;20230;-88
2021/12/12 04:50:10;;;;;;;7.13;4.15;;;4.60;99.90;;;;;;5061217;28;20221;-88
2021/12/12 04:52:45;;;;;;;7.82;4.05;;;4.50;99.90;;;;;;5073528;28;20191;-89
2021/12/12 04:55:16;;;;;;;9.13;4.82;;;4.70;99.90;;;;;;5062297;28;20289;-88
2021/12/12 04:57:47;;;;;;;7.25;4.22;;;4.70;99.90;;;;;;5059906;28;20190;-89
2021/12/12 05:00:19;;;;;;;9.02;4.55;;;4.50;99.90;;;;;;5060414;28;20201;-87
2021/12/12 05:02:55;;;;;;;7.97;4.70;;;4.20;99.90;;;;;;5062223;28;20190;-88
2021/12/12 05:05:25;;;;;;;7.10;4.87;;;4.50;99.90;;;;;;5061540;28;20225;-89
2021/12/12 05:07:58;;;;;;;8.80;4.40;;;4.30;99.90;;;;;;5060269;28;20625;-88
2021/12/12 05:10:30;;;;;;;8.48;5.93;;;3.80;99.90;;;;;;5061911;28;20221;-90
2021/12/12 05:13:06;;;;;;;8.48;4.60;;;4.10;99.90;;;;;;5060324;28;20552;-90
2021/12/12 05:15:37;;;;;;;8.43;4.80;;;4.30;99.90;;;;;;5059549;28;20232;-89
2021/12/12 05:18:09;;;;;;;8.98;5.03;;;4.10;99.90;;;;;;5059590;28;20277;-87
2021/12/12 05:20:42;;;;;;;9.60;4.82;;;4.00;99.90;;;;;;5063589;28;20247;-90
2021/12/12 05:23:14;;;;;;;13.00;5.30;;;4.10;99.90;;;;;;5076932;28;20175;-88
2021/12/12 05:25:46;;;;;;;7.13;5.07;;;3.70;99.90;;;;;;5069787;28;20287;-87
2021/12/12 05:28:17;;;;;;;9.40;4.70;;;3.70;99.90;;;;;;5077833;28;20247;-86
2021/12/12 05:30:45;;;;;;;8.55;5.90;;;4.00;99.90;;;;;;5075646;28;20273;-86
2021/12/12 05:33:15;;;;;;;11.18;6.07;;;3.90;99.90;;;;;;5072041;28;20207;-88
2021/12/12 05:35:43;;;;;;;8.35;4.93;;;3.90;99.90;;;;;;5079108;22;20265;-79
2021/12/12 05:38:12;;;;;;;7.20;4.32;;;3.80;99.90;;;;;;5057106;28;20679;-79
2021/12/12 05:40:42;;;;;;;9.05;4.90;;;3.90;99.90;;;;;;5056656;28;20210;-79
2021/12/12 05:43:09;;;;;;;9.68;4.32;;;3.90;99.90;;;;;;5056915;28;20210;-80
2021/12/12 05:45:37;;;;;;;9.25;4.65;;;3.90;99.90;;;;;;5056266;28;20228;-79
2021/12/12 05:48:06;;;;;;;8.40;4.50;;;4.20;99.90;;;;;;5056027;28;20281;-79
2021/12/12 05:50:33;;;;;;;7.00;4.13;;;4.00;99.90;;;;;;5056012;28;20229;-80
2021/12/12 05:53:01;;;;;;;6.82;4.53;;;4.00;99.90;;;;;;5055493;28;20289;-80
2021/12/12 05:55:32;;;;;;;6.93;4.75;;;3.90;99.90;;;;;;5055992;28;20612;-80
2021/12/12 05:58:01;;;;;;;8.15;4.45;;;3.90;99.90;;;;;;5055992;28;20205;-80
2021/12/12 06:00:35;;;;;;;10.18;5.15;;;3.80;99.90;;;;;;5055658;28;20209;-79
2021/12/12 06:03:02;;;;;;;7.00;3.90;;;3.80;99.90;;;;;;5056161;28;20198;-79
2021/12/12 06:05:33;;;;;;;6.57;4.00;;;3.80;99.90;;;;;;5056171;28;20229;-80
2021/12/12 06:08:00;;;;;;;9.77;4.60;;;3.80;99.90;;;;;;5057496;28;20210;-79
2021/12/12 06:10:29;;;;;;;6.72;4.07;;;3.90;99.90;;;;;;5055982;28;20209;-80
2021/12/12 06:12:57;;;;;;;8.38;5.15;;;3.80;99.90;;;;;;5056065;28;20206;-80
2021/12/12 06:15:27;;;;;;;7.53;4.40;;;4.00;99.90;;;;;;5056500;28;20236;-80
2021/12/12 06:17:55;;;;;;;7.57;4.43;;;3.70;99.90;;;;;;5056391;28;20206;-80
2021/12/12 06:20:22;;;;;;;7.60;4.50;;;3.80;99.90;;;;;;5055748;28;20210;-80
2021/12/12 06:22:51;;;;;;;11.10;6.07;;;3.80;99.90;;;;;;5057433;28;20201;-79
2021/12/12 06:25:18;;;;;;;8.50;4.80;;;3.90;99.90;;;;;;5057702;28;20351;-80
2021/12/12 06:27:46;;;;;;;10.23;4.90;;;3.70;99.90;;;;;;5055977;28;20228;-80
2021/12/12 06:30:19;;;;;;;9.05;4.60;;;3.60;99.90;;;;;;5056959;28;20210;-79
2021/12/12 06:32:48;;;;;;;7.20;5.00;;;3.70;99.90;;;;;;5059334;28;20190;-80
2021/12/12 06:35:16;;;;;;;11.95;4.85;;;3.70;99.90;;;;;;5059245;28;20238;-80
2021/12/12 06:37:43;;;;;;;7.40;5.15;;;3.70;99.90;;;;;;5059729;28;20611;-80
2021/12/12 06:40:14;;;;;;;8.45;4.60;;;3.70;99.90;;;;;;5059093;28;20585;-80
2021/12/12 06:42:41;;;;;;;7.20;4.25;;;3.50;99.90;;;;;;5058677;28;20277;-80
2021/12/12 06:45:12;;;;;;;7.47;4.53;;;3.60;99.90;;;;;;5065574;28;20294;-79
2021/12/12 06:47:39;;;;;;;8.25;4.95;;;3.80;99.90;;;;;;5060458;28;20211;-80
2021/12/12 06:50:10;;;;;;;7.55;4.38;;;4.10;99.90;;;;;;5059262;28;20296;-81
2021/12/12 06:52:37;;;;;;;6.43;4.30;;;3.80;99.90;;;;;;5060188;28;20216;-81
2021/12/12 06:55:06;;;;;;;7.38;5.03;;;3.60;99.90;;;;;;5060094;28;20246;-81
2021/12/12 06:57:33;;;;;;;10.57;4.95;;;3.70;99.90;;;;;;5062118;28;20214;-79
2021/12/12 07:00:00;;;;;;;7.30;4.38;;;3.50;99.90;;;;;;5061199;28;20212;-80
2021/12/12 07:02:29;;;;;;;7.05;4.75;;;3.40;99.90;;;;;;5060608;28;20636;-80
2021/12/12 07:04:56;;;;;;;12.88;4.68;;;3.40;99.90;;;;;;5060536;28;20261;-80
2021/12/12 07:07:27;;;;;;;8.30;4.55;;;3.60;99.90;;;;;;5060654;28;20706;-80
2021/12/12 07:09:54;;;;;;;10.23;5.20;;;3.40;99.90;;;;;;5062224;28;20234;-80
2021/12/12 07:12:22;;;;;;;8.18;5.10;;;3.40;99.90;;;;;;5061371;28;20216;-79
2021/12/12 07:14:51;;;;;;;13.15;4.38;;;3.70;99.90;;;;;;5061148;28;20312;-79
2021/12/12 07:17:18;;;;;;;7.65;4.90;;;3.60;99.90;;;;;;5061792;28;20209;-79
2021/12/12 07:19:47;;;;;;;8.73;5.05;;;3.30;99.90;;;;;;5062066;28;20210;-79
2021/12/12 07:22:15;;;;;;;10.38;5.05;;;3.50;99.90;;;;;;5062090;28;20206;-79
2021/12/12 07:24:43;;;;;;;10.45;5.95;;;3.40;99.90;;;;;;5062984;28;20240;-79
2021/12/12 07:27:10;;;;;;;7.90;5.22;;;3.10;99.90;;;;;;5062249;28;20225;-79
2021/12/12 07:29:37;;;;;;;12.55;5.57;;;3.40;99.90;;;;;;5066246;28;20240;-79
2021/12/12 07:32:05;;;;;;;10.98;5.38;;;3.50;99.90;;;;;;5067311;28;20296;-79
2021/12/12 07:34:32;;;;;;;10.30;6.43;;;3.40;99.90;;;;;;5063009;28;20545;-80
2021/12/12 07:37:04;;;;;;;10.48;6.20;;;3.50;99.90;;;;;;5061806;28;20195;-82
2021/12/12 07:39:33;;;;;;;9.93;5.35;;;3.50;99.90;;;;;;5061691;28;20193;-79
2021/12/12 07:42:03;;;;;;;9.98;5.43;;;3.60;99.90;;;;;;5062674;28;20206;-79
2021/12/12 07:44:34;;;;;;;10.23;6.32;;;3.60;99.90;;;;;;5062766;28;20282;-79
2021/12/12 07:47:01;;;;;;;9.88;6.35;;;3.40;99.90;;;;;;5061447;28;20650;-79
2021/12/12 07:49:31;;;;;;;12.52;6.22;;;3.70;99.90;;;;;;5062236;28;20765;-80
2021/12/12 07:52:00;;;;;;;8.77;6.30;;;3.60;99.90;;;;;;5061106;28;20202;-79
2021/12/12 07:54:27;;;;;;;10.00;5.65;;;3.60;99.90;;;;;;5061308;28;20208;-80
2021/12/12 07:56:55;;;;;;;8.10;5.28;;;3.60;99.90;;;;;;5060689;28;20207;-79
2021/12/12 07:59:22;;;;;;;8.30;5.80;;;3.70;99.90;;;;;;5064091;28;20289;-79
2021/12/12 08:01:52;;;;;;;7.45;4.95;;;3.80;99.90;;;;;;5065608;28;20297;-79
2021/12/12 08:04:22;;;;;;;8.73;5.07;;;3.70;99.90;;;;;;5063704;28;20205;-81
2021/12/12 08:06:50;;;;;;;12.27;4.75;;;3.70;99.90;;;;;;5073005;28;20283;-81
2021/12/12 08:09:19;;;;;;;7.13;4.45;;;4.10;99.90;;;;;;5072471;28;20269;-79
2021/12/12 08:11:47;;;;;;;7.07;4.82;;;4.20;99.90;;;;;;5073134;28;20216;-80
2021/12/12 08:14:17;;;;;;;7.68;4.60;;;4.10;99.90;;;;;;5068262;28;20274;-80
2021/12/12 08:16:45;;;;;;;7.57;4.20;;;4.30;99.90;;;;;;5061388;28;20190;-79
2021/12/12 08:19:13;;;;;;;8.23;4.88;;;4.30;99.90;;;;;;5063484;28;20206;-80
2021/12/12 08:21:40;;;;;;;6.07;3.85;;;4.40;99.90;;;;;;5070852;28;20277;-79
2021/12/12 08:24:10;;;;;;;6.13;3.92;;;4.70;99.90;;;;;;5071042;28;20293;-81
2021/12/12 08:26:41;;;;;;;7.47;4.40;;;4.70;99.90;;;;;;5061224;28;20232;-82
2021/12/12 08:29:08;;;;;;;8.07;4.30;;;4.90;99.90;;;;;;5059965;28;20282;-80
2021/12/12 08:31:36;;;;;;;6.40;3.78;;;4.90;99.90;;;;;;5061537;28;20221;-80
2021/12/12 08:34:04;;;;;;;7.00;3.72;;;5.00;99.90;;;;;;5063672;28;20297;-80
2021/12/12 08:36:33;;;;;;;7.15;4.38;;;5.00;99.90;;;;;;5062826;28;20234;-80
2021/12/12 08:39:00;;;;;;;5.22;3.72;;;4.90;99.90;;;;;;5063182;28;20195;-79
2021/12/12 08:41:29;;;;;;;5.68;3.58;;;5.00;99.90;;;;;;5062561;28;20233;-80
2021/12/12 08:43:58;;;;;;;5.63;3.30;;;5.10;99.90;;;;;;5062929;28;20213;-81
2021/12/12 08:46:25;;;;;;;7.50;3.70;;;5.20;99.90;;;;;;5061563;28;20252;-79
2021/12/12 08:48:53;;;;;;;7.00;3.92;;;5.30;99.90;;;;;;5059843;28;20218;-80
2021/12/12 08:51:32;;;;;;;5.93;3.72;;;5.20;99.90;;;;;;5060857;28;20213;-79
2021/12/12 08:54:03;;;;;;;6.40;3.25;;;5.10;99.90;;;;;;5061299;28;20201;-80
2021/12/12 08:56:42;;;;;;;7.30;3.55;;;5.20;99.90;;;;;;5062426;28;20226;-82
2021/12/12 08:59:11;;;;;;;5.28;3.17;;;5.10;99.90;;;;;;5060981;28;20220;-80
2021/12/12 09:01:39;;;;;;;5.22;3.42;;;5.40;99.90;;;;;;5062295;28;20202;-80
2021/12/12 09:04:09;;;;;;;6.65;3.33;;;5.60;99.90;;;;;;5061852;28;20202;-80
2021/12/12 09:06:40;;;;;;;9.32;3.88;;;5.50;99.90;;;;;;5058766;28;20254;-79
2021/12/12 09:09:10;;;;;;;5.28;3.20;;;5.30;99.90;;;;;;5061003;28;20187;-80
2021/12/12 09:11:45;;;;;;;6.70;3.13;;;5.40;99.90;;;;;;5056881;28;20201;-79
2021/12/12 09:14:17;;;;;;;4.65;2.88;;;5.30;99.90;;;;;;5056616;28;20247;-79
2021/12/12 09:16:47;;;;;;;5.43;3.20;;;5.30;99.90;;;;;;5056682;28;20197;-80
2021/12/12 09:19:17;;;;;;;4.90;3.13;;;5.40;99.90;;;;;;5057593;28;20209;-79
2021/12/12 09:21:54;;;;;;;6.10;3.25;;;5.30;99.90;;;;;;5057699;28;20212;-79
2021/12/12 09:24:32;;;;;;;5.05;2.80;;;5.40;99.90;;;;;;5057894;28;20250;-80
2021/12/12 09:27:04;;;;;;;5.18;3.00;;;5.50;99.90;;;;;;5059047;28;20190;-78
2021/12/12 09:29:37;;;;;;;5.65;3.05;;;5.50;99.90;;;;;;5061655;28;20190;-81
2021/12/12 09:32:11;;;;;;;5.53;2.97;;;5.30;99.90;;;;;;5061712;28;20193;-81
2021/12/12 09:34:45;;;;;;;6.80;2.88;;;5.40;99.90;;;;;;5062544;28;20756;-84
2021/12/12 09:37:17;;;;;;;5.95;2.78;;;5.40;99.90;;;;;;5065156;28;20228;-78
2021/12/12 09:39:50;;;;;;;5.63;2.95;;;5.50;99.90;;;;;;5060857;28;20213;-79
2021/12/12 09:42:35;;;;;;;7.40;2.72;;;5.60;99.90;;;;;;5057927;28;20277;-83
2021/12/12 09:45:31;;;;;;;5.40;2.70;;;5.60;99.90;;;;;;5065207;28;20261;-80
2021/12/12 09:51:19;;;;;;;5.60;2.90;;;5.60;99.90;;;;;;5057554;28;20200;-79
2021/12/12 09:54:14;;;;;;;5.35;2.75;;;6.00;99.90;;;;;;5056278;28;20191;-79
2021/12/12 09:56:48;;;;;;;6.43;3.72;;;5.60;99.90;;;;;;5057043;28;20195;-81
2021/12/12 09:59:26;;;;;;;5.15;2.60;;;6.00;99.90;;;;;;5056625;28;20231;-79
2021/12/12 10:02:08;;;;;;;5.07;2.40;;;6.10;99.90;;;;;;5056695;28;20190;-80
2021/12/12 10:04:49;;;;;;;5.47;2.63;;;5.90;99.90;;;;;;5056491;28;20284;-79
2021/12/12 10:07:34;;;;;;;3.92;2.38;;;6.00;99.90;;;;;;5060941;28;20220;-80
2021/12/12 10:10:08;;;;;;;5.00;2.90;;;6.00;99.90;;;;;;5060318;28;20708;-78
2021/12/12 10:12:39;;;;;;;6.65;2.10;;;6.20;99.90;;;;;;5059116;28;20194;-78
2021/12/12 10:15:11;;;;;;;5.22;2.65;;;6.20;99.90;;;;;;5059343;28;20706;-77
2021/12/12 10:17:45;;;;;;;4.85;2.60;;;6.40;99.90;;;;;;5058800;28;20201;-81
2021/12/12 10:20:17;;;;;;;4.93;2.50;;;6.50;99.90;;;;;;5067317;28;20193;-79
2021/12/12 10:23:01;;;;;;;5.72;2.50;;;6.50;99.90;;;;;;5062022;28;20199;-81
2021/12/12 10:25:34;;;;;;;7.18;2.25;;;6.60;99.90;;;;;;5061407;28;20715;-81
2021/12/12 10:28:07;;;;;;;6.55;2.55;;;6.90;99.90;;;;;;5062243;28;20214;-81
2021/12/12 10:30:40;;;;;;;4.97;1.88;;;6.80;99.90;;;;;;5062565;28;20608;-81
2021/12/12 10:33:14;;;;;;;5.40;1.80;;;6.90;99.90;;;;;;5062349;28;20273;-81
2021/12/12 10:35:43;;;;;;;5.05;2.20;;;6.90;99.90;;;;;;5063429;28;20320;-81
2021/12/12 10:38:17;;;;;;;3.50;1.88;;;6.90;99.90;;;;;;5063071;28;20304;-81
2021/12/12 10:40:48;;;;;;;4.57;1.98;;;6.90;99.90;;;;;;5060993;28;20198;-81
2021/12/12 10:43:22;;;;;;;5.20;2.50;;;7.00;99.90;;;;;;5063313;28;20278;-85
2021/12/12 10:45:55;;;;;;;4.63;1.90;;;7.20;99.90;;;;;;5062311;28;20262;-80
2021/12/12 10:48:30;;;;;;;4.20;2.10;;;7.20;99.90;;;;;;5061973;28;20671;-80
2021/12/12 10:51:05;;;;;;;4.85;2.22;;;6.90;99.90;;;;;;5067319;28;20629;-80
2021/12/12 10:53:37;;;;;;;5.47;2.65;;;7.20;99.90;;;;;;5063481;28;20269;-80
2021/12/12 10:56:09;;;;;;;5.63;2.25;;;7.30;99.90;;;;;;5063746;28;20706;-81
2021/12/12 10:58:43;;;;;;;5.10;3.10;;;7.20;99.90;;;;;;5062592;28;20186;-80
2021/12/12 11:01:13;;;;;;;7.30;3.65;;;7.10;99.90;;;;;;5062118;28;20200;-81
2021/12/12 11:03:49;;;;;;;4.60;2.38;;;7.30;99.90;;;;;;5061119;28;20293;-80
2021/12/12 11:06:20;;;;;;;3.90;1.88;;;7.50;99.90;;;;;;5061092;28;20230;-82
2021/12/12 11:08:56;;;;;;;6.25;2.08;;;7.20;99.90;;;;;;5061976;28;20213;-80
2021/12/12 11:11:26;;;;;;;7.10;2.55;;;7.40;99.90;;;;;;5061486;28;20198;-80
2021/12/12 11:13:59;;;;;;;5.00;2.55;;;7.00;99.90;;;;;;5061552;28;20187;-81
2021/12/12 11:16:29;;;;;;;7.40;3.00;;;7.40;99.90;;;;;;5061906;28;20309;-81
2021/12/12 11:19:02;;;;;;;4.45;2.20;;;7.60;99.90;;;;;;5060778;28;20209;-81
2021/12/12 11:21:33;;;;;;;6.18;2.92;;;7.50;99.90;;;;;;5060826;28;20191;-81
2021/12/12 11:24:04;;;;;;;4.80;1.90;;;7.50;99.90;;;;;;5060969;28;20200;-81
2021/12/12 11:26:40;;;;;;;3.92;2.15;;;7.50;99.90;;;;;;5059535;28;20317;-78
2021/12/12 11:29:11;;;;;;;5.53;2.55;;;7.10;99.90;;;;;;5060418;28;20212;-81
2021/12/12 11:31:43;;;;;;;5.78;2.05;;;7.30;99.90;;;;;;5060272;28;20247;-80
2021/12/12 11:34:12;;;;;;;6.40;2.47;;;7.30;99.90;;;;;;5061161;28;20211;-80
2021/12/12 11:36:50;;;;;;;7.38;2.53;;;7.30;99.90;;;;;;5062742;28;20242;-80
2021/12/12 11:39:22;;;;;;;4.30;1.88;;;7.30;99.90;;;;;;5082898;22;20705;-80
2021/12/12 11:41:58;;;;;;;4.20;1.80;;;7.10;99.90;;;;;;5057640;28;20198;-80
2021/12/12 11:44:30;;;;;;;4.30;2.70;;;7.30;99.90;;;;;;5059109;28;20236;-80
2021/12/12 11:47:07;;;;;;;7.32;2.60;;;7.50;99.90;;;;;;5062028;28;20225;-77
2021/12/12 11:49:44;;;;;;;4.40;2.13;;;7.30;99.90;;;;;;5037864;28;20216;-79
2021/12/12 11:52:18;;;;;;;9.10;2.28;;;7.60;99.90;;;;;;5038755;28;20263;-79
2021/12/12 11:54:55;;;;;;;7.07;2.17;;;7.30;99.90;;;;;;5038068;28;20266;-80
2021/12/12 11:57:28;;;;;;;4.20;2.15;;;7.40;99.90;;;;;;5038595;28;20242;-79
2021/12/12 12:00:04;;;;;;;5.05;2.25;;;7.70;99.90;;;;;;5038337;28;20197;-79
2021/12/12 12:02:35;;;;;;;4.35;2.45;;;7.70;99.90;;;;;;5036685;28;20242;-79
2021/12/12 12:05:13;;;;;;;5.30;2.80;;;7.60;99.90;;;;;;5036999;28;20208;-79
2021/12/12 12:07:52;;;;;;;5.80;2.03;;;7.50;99.90;;;;;;5037124;28;20315;-79
2021/12/12 12:10:37;;;;;;;5.03;2.30;;;7.60;99.90;;;;;;5037540;28;20192;-79
2021/12/12 12:13:21;;;;;;;6.65;2.40;;;7.70;99.90;;;;;;5034582;28;20282;-77
2021/12/12 12:15:55;;;;;;;4.88;2.45;;;7.80;99.90;;;;;;5033020;28;20279;-77
2021/12/12 12:18:37;;;;;;;5.65;2.10;;;7.70;99.90;;;;;;5033478;28;20224;-77
2021/12/12 12:21:12;;;;;;;3.95;2.33;;;7.90;99.90;;;;;;5041374;28;20198;-79
2021/12/12 12:24:10;;;;;;;5.90;2.40;;;7.80;99.90;;;;;;5039883;28;20195;-79
2021/12/12 12:26:55;;;;;;;5.72;2.80;;;7.70;99.90;;;;;;5046842;28;20208;-79
2021/12/12 12:30:04;;;;;;;3.60;1.77;;;7.70;99.90;;;;;;5039659;28;20834;-79
2021/12/12 12:33:22;;;;;;;10.15;2.83;;;7.50;99.90;;;;;;5044591;28;20211;-78
2021/12/12 12:36:22;;;;;;;6.20;3.30;;;7.80;99.90;;;;;;5014271;28;20215;-79
2021/12/12 12:39:43;;;;;;;5.25;2.38;;;7.90;99.90;;;;;;5037101;28;20235;-79
2021/12/12 12:42:55;;;;;;;3.80;2.00;;;8.20;99.90;;;;;;4998140;28;20309;-77
2021/12/12 12:46:07;;;;;;;5.03;2.20;;;8.00;99.90;;;;;;5036243;28;20249;-78
2021/12/12 12:49:22;;;;;;;4.82;2.33;;;8.10;99.90;;;;;;5024390;28;20235;-76
2021/12/12 12:52:29;;;;;;;4.63;1.95;;;8.10;99.90;;;;;;5014668;28;20219;-76
2021/12/12 12:55:30;;;;;;;3.95;2.10;;;7.90;99.90;;;;;;5010735;28;20257;-76
2021/12/12 12:58:05;;;;;;;4.18;2.28;;;7.90;99.90;;;;;;5034135;28;20235;-76
2021/12/12 13:00:35;;;;;;;5.80;2.28;;;7.90;99.90;;;;;;5034359;28;20574;-78
2021/12/12 13:03:19;;;;;;;3.80;1.92;;;8.20;99.90;;;;;;5042282;28;20242;-80
2021/12/12 13:06:13;;;;;;;4.93;2.30;;;8.00;99.90;;;;;;5033152;28;20192;-78
2021/12/12 13:09:05;;;;;;;5.28;1.80;;;7.90;99.90;;;;;;5033103;28;20579;-77
2021/12/12 13:11:41;;;;;;;6.40;2.17;;;8.00;99.90;;;;;;5034819;28;20204;-80
2021/12/12 13:14:21;;;;;;;6.13;2.13;;;8.10;99.90;;;;;;5033145;28;20204;-78
2021/12/12 13:16:53;;;;;;;4.97;2.30;;;8.10;99.90;;;;;;5034761;28;20196;-78
2021/12/12 13:19:30;;;;;;;5.00;2.25;;;8.10;99.90;;;;;;5033455;28;20539;-78
2021/12/12 13:22:05;;;;;;;5.50;2.40;;;7.80;99.90;;;;;;5040109;28;20198;-78
2021/12/12 13:24:45;;;;;;;4.75;2.50;;;8.10;99.90;;;;;;5036039;28;20192;-78
2021/12/12 13:27:39;;;;;;;5.75;2.33;;;8.00;99.90;;;;;;5038570;28;20187;-78
2021/12/12 13:30:13;;;;;;;5.70;2.50;;;8.20;99.90;;;;;;5034570;28;20253;-78
2021/12/12 13:32:51;;;;;;;6.50;2.15;;;8.20;99.90;;;;;;5037716;28;20284;-78
2021/12/12 13:35:23;;;;;;;6.70;2.30;;;7.90;99.90;;;;;;5038548;28;20191;-77
2021/12/12 13:38:06;;;;;;;5.20;2.63;;;8.20;99.90;;;;;;5038659;28;20240;-77
2021/12/12 13:40:39;;;;;;;4.25;2.25;;;8.20;99.90;;;;;;5041540;28;20195;-78
2021/12/12 13:43:14;;;;;;;6.95;2.40;;;8.30;99.90;;;;;;5038963;28;20287;-78